createdAt,value
2022-10-01T00:00:52.914Z,992.98
2022-10-01T00:01:53.131Z,992.96
2022-10-01T00:02:53.196Z,992.91
2022-10-01T00:03:53.147Z,992.88
2022-10-01T00:04:53.238Z,992.90
2022-10-01T00:05:53.314Z,992.87
2022-10-01T00:06:53.399Z,992.94
2022-10-01T00:07:53.497Z,992.85
2022-10-01T00:08:53.577Z,992.89
2022-10-01T00:09:53.658Z,992.91
2022-10-01T00:10:53.739Z,992.92
2022-10-01T00:11:53.819Z,992.90
2022-10-01T00:12:53.966Z,992.93
2022-10-01T00:13:53.998Z,992.84
2022-10-01T00:14:54.071Z,992.87
2022-10-01T00:15:54.155Z,992.82
2022-10-01T00:16:54.323Z,992.80
2022-10-01T00:17:54.309Z,992.74
2022-10-01T00:18:54.385Z,992.73
2022-10-01T00:19:54.440Z,992.60
2022-10-01T00:20:54.516Z,992.68
2022-10-01T00:21:54.585Z,992.66
2022-10-01T00:22:54.717Z,992.66
2022-10-01T00:23:54.749Z,992.66
2022-10-01T00:24:54.830Z,992.64
2022-10-01T00:25:54.913Z,992.66
2022-10-01T00:26:54.973Z,992.66
2022-10-01T00:27:55.171Z,992.65
2022-10-01T00:28:55.126Z,992.61
2022-10-01T00:29:55.218Z,992.70
2022-10-01T00:30:55.299Z,992.70
2022-10-01T00:31:55.423Z,992.67
2022-10-01T00:32:55.463Z,992.68
2022-10-01T00:33:55.537Z,992.65
2022-10-01T00:34:55.616Z,992.69
2022-10-01T00:35:55.691Z,992.64
2022-10-01T00:36:55.775Z,992.65
2022-10-01T00:37:55.860Z,992.54
2022-10-01T00:38:55.922Z,992.61
2022-10-01T00:39:56.026Z,992.56
2022-10-01T00:40:56.104Z,992.54
2022-10-01T00:41:56.213Z,992.54
2022-10-01T00:42:56.325Z,992.56
2022-10-01T00:43:56.371Z,992.48
2022-10-01T00:44:56.444Z,992.50
2022-10-01T00:45:56.563Z,992.46
2022-10-01T00:46:56.619Z,992.41
2022-10-01T00:47:56.744Z,992.45
2022-10-01T00:48:56.811Z,992.41
2022-10-01T00:49:59.423Z,992.35
2022-10-01T00:50:56.989Z,992.33
2022-10-01T00:51:57.096Z,992.33
2022-10-01T00:52:57.196Z,992.34
2022-10-01T00:53:57.299Z,992.39
2022-10-01T00:54:57.373Z,992.40
2022-10-01T00:55:57.461Z,992.37
2022-10-01T00:56:57.514Z,992.34
2022-10-01T00:57:57.605Z,992.37
2022-10-01T00:58:57.638Z,992.32
2022-10-01T00:59:57.749Z,992.31
2022-10-01T01:00:57.877Z,992.27
2022-10-01T01:01:58.048Z,992.26
2022-10-01T01:02:58.102Z,992.26
2022-10-01T01:03:58.093Z,992.25
2022-10-01T01:04:58.172Z,992.24
2022-10-01T01:05:58.247Z,992.19
2022-10-01T01:06:58.329Z,992.17
2022-10-01T01:07:58.412Z,992.17
2022-10-01T01:08:58.464Z,992.18
2022-10-01T01:09:58.566Z,992.18
2022-10-01T01:10:58.652Z,992.18
2022-10-01T01:11:58.725Z,992.13
2022-10-01T01:12:58.814Z,992.11
2022-10-01T01:13:58.884Z,992.13
2022-10-01T01:14:58.970Z,992.05
2022-10-01T01:15:59.114Z,992.06
2022-10-01T01:16:59.104Z,991.97
2022-10-01T01:17:59.256Z,991.89
2022-10-01T01:18:59.276Z,992.05
2022-10-01T01:19:59.362Z,992.03
2022-10-01T01:20:59.449Z,991.99
2022-10-01T01:21:59.529Z,991.99
2022-10-01T01:22:59.711Z,991.93
2022-10-01T01:23:59.699Z,991.97
2022-10-01T01:24:59.782Z,991.94
2022-10-01T01:25:59.837Z,991.93
2022-10-01T01:26:59.921Z,991.93
2022-10-01T01:28:00.091Z,991.93
2022-10-01T01:29:00.095Z,991.91
2022-10-01T01:30:00.168Z,991.92
2022-10-01T01:31:00.327Z,991.84
2022-10-01T01:32:00.316Z,991.80
2022-10-01T01:33:00.450Z,991.88
2022-10-01T01:34:00.480Z,991.87
2022-10-01T01:35:00.584Z,991.79
2022-10-01T01:36:00.644Z,991.80
2022-10-01T01:37:00.730Z,991.81
2022-10-01T01:38:00.827Z,991.78
2022-10-01T01:39:00.895Z,991.74
2022-10-01T01:40:00.959Z,991.76
2022-10-01T01:41:01.051Z,991.72
2022-10-01T01:42:01.115Z,991.70
2022-10-01T01:43:01.216Z,991.71
2022-10-01T01:44:01.252Z,991.73
2022-10-01T01:45:01.355Z,991.63
2022-10-01T01:46:01.441Z,991.62
2022-10-01T01:47:01.505Z,991.64
2022-10-01T01:48:01.587Z,991.55
2022-10-01T01:49:01.653Z,991.51
2022-10-01T01:50:01.707Z,991.49
2022-10-01T01:51:01.805Z,991.49
2022-10-01T01:52:01.868Z,991.47
2022-10-01T01:53:01.984Z,991.48
2022-10-01T01:54:02.040Z,991.41
2022-10-01T01:55:02.145Z,991.43
2022-10-01T01:56:02.207Z,991.43
2022-10-01T01:57:02.284Z,991.40
2022-10-01T01:58:02.374Z,991.38
2022-10-01T01:59:02.452Z,991.37
2022-10-01T02:00:02.503Z,991.26
2022-10-01T02:01:02.615Z,991.23
2022-10-01T02:02:02.825Z,991.26
2022-10-01T02:03:02.833Z,991.21
2022-10-01T02:04:02.846Z,991.13
2022-10-01T02:05:02.914Z,991.22
2022-10-01T02:06:02.978Z,991.22
2022-10-01T02:07:03.081Z,991.17
2022-10-01T02:08:03.172Z,991.16
2022-10-01T02:09:03.232Z,991.03
2022-10-01T02:10:03.317Z,991.05
2022-10-01T02:11:03.393Z,991.00
2022-10-01T02:12:03.454Z,990.96
2022-10-01T02:13:03.561Z,990.95
2022-10-01T02:14:03.604Z,990.92
2022-10-01T02:15:03.715Z,990.89
2022-10-01T02:16:03.807Z,990.78
2022-10-01T02:17:03.853Z,990.75
2022-10-01T02:18:03.955Z,990.66
2022-10-01T02:19:04.031Z,990.67
2022-10-01T02:20:04.114Z,990.63
2022-10-01T02:21:04.190Z,990.58
2022-10-01T02:22:04.272Z,990.46
2022-10-01T02:23:04.601Z,990.41
2022-10-01T02:24:04.437Z,990.42
2022-10-01T02:25:04.526Z,990.41
2022-10-01T02:26:04.612Z,990.44
2022-10-01T02:27:04.703Z,990.39
2022-10-01T02:28:04.847Z,990.40
2022-10-01T02:29:04.850Z,990.39
2022-10-01T02:30:04.920Z,990.32
2022-10-01T02:31:05.080Z,990.32
2022-10-01T02:32:05.077Z,990.29
2022-10-01T02:33:05.277Z,990.16
2022-10-01T02:34:07.561Z,990.22
2022-10-01T02:35:05.311Z,990.16
2022-10-01T02:36:05.377Z,990.06
2022-10-01T02:37:05.469Z,990.05
2022-10-01T02:38:05.549Z,989.94
2022-10-01T02:39:05.635Z,989.99
2022-10-01T02:40:05.705Z,989.97
2022-10-01T02:41:05.787Z,989.99
2022-10-01T02:42:05.852Z,990.00
2022-10-01T02:43:05.955Z,989.92
2022-10-01T02:44:06.018Z,989.90
2022-10-01T02:45:06.103Z,989.81
2022-10-01T02:46:06.238Z,989.81
2022-10-01T02:47:06.274Z,989.68
2022-10-01T02:48:06.364Z,989.73
2022-10-01T02:49:06.435Z,989.57
2022-10-01T02:50:06.514Z,989.65
2022-10-01T02:51:06.602Z,989.64
2022-10-01T02:52:06.681Z,989.53
2022-10-01T02:53:06.858Z,989.59
2022-10-01T02:54:06.826Z,989.62
2022-10-01T02:55:06.896Z,989.59
2022-10-01T02:56:06.969Z,989.45
2022-10-01T02:57:07.045Z,989.52
2022-10-01T02:58:07.130Z,989.49
2022-10-01T02:59:07.209Z,989.43
2022-10-01T03:00:07.295Z,989.39
2022-10-01T03:01:07.483Z,989.31
2022-10-01T03:02:07.522Z,989.30
2022-10-01T03:03:07.566Z,989.22
2022-10-01T03:04:07.596Z,989.20
2022-10-01T03:05:07.692Z,989.24
2022-10-01T03:06:07.760Z,989.22
2022-10-01T03:07:07.841Z,989.17
2022-10-01T03:08:07.933Z,989.19
2022-10-01T03:09:08.009Z,989.03
2022-10-01T03:10:08.095Z,989.17
2022-10-01T03:11:08.178Z,989.18
2022-10-01T03:12:08.256Z,989.17
2022-10-01T03:13:08.366Z,989.19
2022-10-01T03:14:08.402Z,989.13
2022-10-01T03:15:08.480Z,989.23
2022-10-01T03:16:08.623Z,989.13
2022-10-01T03:17:08.657Z,988.97
2022-10-01T03:18:08.759Z,988.94
2022-10-01T03:19:08.822Z,989.06
2022-10-01T03:20:08.897Z,988.98
2022-10-01T03:21:09.003Z,989.01
2022-10-01T03:22:09.079Z,988.94
2022-10-01T03:23:09.201Z,988.98
2022-10-01T03:24:09.243Z,988.87
2022-10-01T03:25:09.318Z,988.84
2022-10-01T03:26:09.396Z,988.94
2022-10-01T03:27:09.470Z,988.93
2022-10-01T03:28:09.645Z,988.99
2022-10-01T03:29:09.657Z,989.09
2022-10-01T03:30:09.729Z,989.17
2022-10-01T03:31:09.929Z,989.15
2022-10-01T03:32:09.877Z,989.22
2022-10-01T03:33:11.807Z,989.23
2022-10-01T03:34:10.039Z,989.34
2022-10-01T03:35:10.131Z,989.35
2022-10-01T03:36:10.188Z,989.51
2022-10-01T03:37:10.279Z,989.38
2022-10-01T03:38:10.341Z,989.43
2022-10-01T03:39:10.440Z,989.46
2022-10-01T03:40:10.520Z,989.45
2022-10-01T03:41:10.605Z,989.45
2022-10-01T03:42:10.665Z,989.45
2022-10-01T03:43:10.758Z,989.30
2022-10-01T03:44:10.929Z,989.33
2022-10-01T03:45:10.878Z,989.37
2022-10-01T03:46:10.984Z,989.35
2022-10-01T03:47:11.020Z,989.30
2022-10-01T03:48:11.070Z,989.31
2022-10-01T03:49:11.199Z,989.35
2022-10-01T03:50:11.225Z,989.32
2022-10-01T03:51:11.330Z,989.25
2022-10-01T03:52:11.391Z,989.35
2022-10-01T03:53:11.507Z,989.33
2022-10-01T03:54:11.595Z,989.33
2022-10-01T03:55:11.649Z,989.37
2022-10-01T03:56:11.718Z,989.17
2022-10-01T03:57:11.803Z,989.19
2022-10-01T03:58:11.870Z,989.24
2022-10-01T03:59:11.980Z,989.29
2022-10-01T04:00:12.049Z,989.27
2022-10-01T04:01:12.250Z,989.28
2022-10-01T04:02:12.355Z,989.26
2022-10-01T04:03:12.387Z,989.27
2022-10-01T04:04:12.379Z,989.19
2022-10-01T04:05:12.465Z,989.15
2022-10-01T04:06:12.521Z,989.17
2022-10-01T04:07:12.611Z,989.23
2022-10-01T04:08:12.667Z,989.17
2022-10-01T04:09:12.785Z,989.07
2022-10-01T04:10:12.843Z,989.10
2022-10-01T04:11:12.926Z,989.13
2022-10-01T04:12:12.994Z,989.19
2022-10-01T04:13:13.099Z,989.15
2022-10-01T04:14:13.182Z,989.21
2022-10-01T04:15:13.247Z,989.33
2022-10-01T04:16:13.340Z,989.37
2022-10-01T04:17:13.425Z,989.41
2022-10-01T04:18:13.488Z,989.47
2022-10-01T04:19:13.619Z,989.52
2022-10-01T04:20:13.659Z,989.45
2022-10-01T04:21:13.751Z,989.49
2022-10-01T04:22:13.845Z,989.47
2022-10-01T04:23:13.940Z,989.49
2022-10-01T04:24:14.116Z,989.39
2022-10-01T04:25:14.087Z,989.34
2022-10-01T04:26:14.138Z,989.43
2022-10-01T04:27:14.246Z,989.52
2022-10-01T04:28:14.410Z,989.59
2022-10-01T04:29:14.439Z,989.65
2022-10-01T04:30:14.503Z,989.66
2022-10-01T04:31:14.681Z,989.67
2022-10-01T04:32:14.687Z,989.71
2022-10-01T04:33:14.780Z,989.65
2022-10-01T04:34:14.860Z,989.74
2022-10-01T04:35:14.931Z,989.76
2022-10-01T04:36:14.995Z,989.84
2022-10-01T04:37:15.085Z,989.79
2022-10-01T04:38:15.143Z,989.76
2022-10-01T04:39:15.242Z,989.79
2022-10-01T04:40:15.297Z,989.77
2022-10-01T04:41:15.384Z,989.68
2022-10-01T04:42:15.445Z,989.55
2022-10-01T04:43:15.534Z,989.55
2022-10-01T04:44:15.625Z,989.43
2022-10-01T04:45:15.678Z,989.33
2022-10-01T04:46:15.836Z,989.26
2022-10-01T04:47:15.842Z,989.11
2022-10-01T04:48:15.903Z,988.95
2022-10-01T04:49:16.019Z,988.88
2022-10-01T04:50:16.084Z,988.80
2022-10-01T04:51:16.173Z,988.67
2022-10-01T04:52:16.235Z,988.66
2022-10-01T04:53:16.335Z,988.37
2022-10-01T04:54:16.506Z,988.18
2022-10-01T04:55:16.475Z,988.40
2022-10-01T04:56:16.547Z,988.53
2022-10-01T04:57:16.644Z,988.37
2022-10-01T04:58:16.710Z,988.37
2022-10-01T04:59:16.826Z,988.47
2022-10-01T05:00:16.887Z,988.45
2022-10-01T05:01:17.063Z,988.51
2022-10-01T05:02:17.065Z,988.55
2022-10-01T05:03:17.138Z,988.44
2022-10-01T05:04:17.246Z,988.50
2022-10-01T05:05:17.309Z,988.41
2022-10-01T05:06:17.358Z,988.48
2022-10-01T05:07:17.455Z,988.58
2022-10-01T05:08:17.505Z,988.62
2022-10-01T05:09:17.633Z,988.65
2022-10-01T05:10:17.701Z,988.66
2022-10-01T05:11:17.802Z,988.62
2022-10-01T05:12:22.358Z,988.59
2022-10-01T05:13:17.942Z,988.74
2022-10-01T05:14:18.031Z,988.65
2022-10-01T05:15:18.093Z,988.75
2022-10-01T05:16:18.189Z,988.80
2022-10-01T05:17:18.241Z,988.82
2022-10-01T05:18:18.300Z,988.69
2022-10-01T05:19:18.403Z,988.63
2022-10-01T05:20:18.462Z,988.62
2022-10-01T05:21:18.545Z,988.67
2022-10-01T05:22:18.616Z,988.68
2022-10-01T05:23:18.688Z,988.77
2022-10-01T05:24:18.774Z,988.75
2022-10-01T05:25:18.821Z,988.74
2022-10-01T05:26:18.899Z,988.69
2022-10-01T05:27:18.970Z,988.64
2022-10-01T05:28:22.504Z,988.68
2022-10-01T05:29:19.143Z,988.76
2022-10-01T05:30:19.181Z,988.83
2022-10-01T05:31:19.387Z,988.81
2022-10-01T05:32:19.309Z,988.84
2022-10-01T05:33:19.382Z,988.83
2022-10-01T05:34:19.507Z,988.90
2022-10-01T05:35:19.541Z,988.78
2022-10-01T05:36:19.619Z,988.71
2022-10-01T05:37:19.707Z,988.73
2022-10-01T05:38:19.770Z,988.63
2022-10-01T05:39:19.873Z,988.63
2022-10-01T05:40:19.945Z,988.66
2022-10-01T05:41:20.038Z,988.71
2022-10-01T05:42:20.122Z,988.79
2022-10-01T05:43:20.162Z,988.85
2022-10-01T05:44:20.269Z,988.89
2022-10-01T05:45:20.312Z,988.91
2022-10-01T05:46:20.403Z,988.89
2022-10-01T05:47:20.460Z,988.94
2022-10-01T05:48:20.535Z,988.92
2022-10-01T05:49:20.643Z,988.96
2022-10-01T05:50:20.725Z,988.90
2022-10-01T05:51:20.779Z,988.92
2022-10-01T05:52:20.862Z,988.87
2022-10-01T05:53:20.951Z,988.96
2022-10-01T05:54:21.048Z,988.91
2022-10-01T05:55:21.101Z,988.94
2022-10-01T05:56:21.183Z,988.91
2022-10-01T05:57:21.227Z,988.97
2022-10-01T05:58:21.308Z,988.96
2022-10-01T05:59:21.383Z,988.99
2022-10-01T06:00:21.476Z,988.93
2022-10-01T06:01:21.559Z,988.93
2022-10-01T06:02:21.787Z,988.92
2022-10-01T06:03:21.779Z,988.93
2022-10-01T06:04:21.961Z,988.93
2022-10-01T06:05:21.887Z,988.96
2022-10-01T06:06:21.993Z,989.06
2022-10-01T06:07:22.066Z,989.01
2022-10-01T06:08:22.148Z,988.96
2022-10-01T06:09:22.292Z,988.94
2022-10-01T06:10:22.318Z,988.91
2022-10-01T06:11:22.370Z,988.93
2022-10-01T06:12:22.474Z,988.88
2022-10-01T06:13:22.535Z,988.85
2022-10-01T06:14:22.653Z,988.87
2022-10-01T06:15:22.683Z,988.83
2022-10-01T06:16:22.830Z,988.93
2022-10-01T06:17:22.818Z,988.97
2022-10-01T06:18:22.922Z,988.93
2022-10-01T06:19:22.983Z,988.95
2022-10-01T06:20:23.083Z,988.94
2022-10-01T06:21:23.166Z,988.90
2022-10-01T06:22:23.275Z,988.91
2022-10-01T06:23:23.340Z,988.87
2022-10-01T06:24:23.545Z,988.90
2022-10-01T06:25:23.528Z,988.90
2022-10-01T06:26:23.623Z,988.95
2022-10-01T06:27:23.691Z,988.97
2022-10-01T06:28:23.846Z,988.98
2022-10-01T06:29:23.890Z,989.03
2022-10-01T06:30:23.981Z,989.07
2022-10-01T06:31:24.076Z,989.05
2022-10-01T06:32:24.123Z,989.04
2022-10-01T06:33:24.210Z,989.09
2022-10-01T06:34:24.326Z,989.07
2022-10-01T06:35:24.382Z,989.13
2022-10-01T06:36:24.473Z,989.07
2022-10-01T06:37:24.545Z,989.06
2022-10-01T06:38:24.632Z,989.05
2022-10-01T06:39:24.716Z,989.06
2022-10-01T06:40:24.801Z,989.10
2022-10-01T06:41:24.872Z,989.15
2022-10-01T06:42:24.967Z,989.16
2022-10-01T06:43:25.047Z,989.19
2022-10-01T06:44:25.169Z,989.22
2022-10-01T06:45:25.225Z,989.23
2022-10-01T06:46:25.317Z,989.21
2022-10-01T06:47:25.377Z,989.18
2022-10-01T06:48:25.471Z,989.17
2022-10-01T06:49:25.616Z,989.20
2022-10-01T06:50:25.717Z,989.24
2022-10-01T06:51:25.677Z,989.22
2022-10-01T06:52:25.774Z,989.23
2022-10-01T06:53:25.862Z,989.31
2022-10-01T06:54:25.989Z,989.26
2022-10-01T06:55:26.019Z,989.37
2022-10-01T06:56:26.124Z,989.29
2022-10-01T06:57:26.203Z,989.40
2022-10-01T06:58:26.320Z,989.41
2022-10-01T06:59:26.357Z,989.39
2022-10-01T07:00:26.424Z,989.40
2022-10-01T07:01:26.556Z,989.40
2022-10-01T07:02:26.645Z,989.36
2022-10-01T07:03:26.644Z,989.36
2022-10-01T07:04:26.773Z,989.34
2022-10-01T07:05:26.830Z,989.40
2022-10-01T07:06:26.926Z,989.39
2022-10-01T07:07:29.926Z,989.40
2022-10-01T07:08:27.099Z,989.43
2022-10-01T07:09:27.191Z,989.46
2022-10-01T07:10:27.254Z,989.45
2022-10-01T07:11:27.326Z,989.45
2022-10-01T07:12:27.433Z,989.42
2022-10-01T07:13:27.512Z,989.44
2022-10-01T07:14:27.731Z,989.45
2022-10-01T07:15:27.672Z,989.41
2022-10-01T07:16:27.823Z,989.51
2022-10-01T07:17:27.823Z,989.44
2022-10-01T07:18:27.896Z,989.43
2022-10-01T07:19:27.997Z,989.40
2022-10-01T07:20:28.053Z,989.33
2022-10-01T07:21:28.126Z,989.37
2022-10-01T07:22:28.216Z,989.41
2022-10-01T07:23:28.287Z,989.44
2022-10-01T07:24:28.416Z,989.37
2022-10-01T07:25:28.425Z,989.46
2022-10-01T07:26:28.546Z,989.38
2022-10-01T07:27:28.615Z,989.44
2022-10-01T07:28:28.714Z,989.44
2022-10-01T07:29:28.751Z,989.39
2022-10-01T07:30:28.832Z,989.44
2022-10-01T07:31:28.945Z,989.52
2022-10-01T07:32:28.971Z,989.53
2022-10-01T07:33:29.047Z,989.54
2022-10-01T07:34:29.173Z,989.49
2022-10-01T07:35:29.207Z,989.44
2022-10-01T07:36:29.314Z,989.39
2022-10-01T07:37:29.385Z,989.41
2022-10-01T07:38:29.476Z,989.40
2022-10-01T07:39:29.566Z,989.45
2022-10-01T07:40:29.622Z,989.53
2022-10-01T07:41:29.693Z,989.54
2022-10-01T07:42:29.778Z,989.56
2022-10-01T07:43:29.932Z,989.56
2022-10-01T07:44:29.997Z,989.54
2022-10-01T07:45:30.086Z,989.63
2022-10-01T07:46:34.499Z,989.58
2022-10-01T07:47:30.178Z,989.58
2022-10-01T07:48:30.278Z,989.50
2022-10-01T07:49:30.366Z,989.49
2022-10-01T07:50:30.473Z,989.57
2022-10-01T07:51:30.664Z,989.59
2022-10-01T07:52:30.608Z,989.56
2022-10-01T07:53:30.699Z,989.60
2022-10-01T07:54:30.800Z,989.68
2022-10-01T07:55:30.935Z,989.66
2022-10-01T07:56:30.959Z,989.65
2022-10-01T07:57:31.028Z,989.66
2022-10-01T07:58:31.121Z,989.63
2022-10-01T07:59:31.233Z,989.65
2022-10-01T08:00:31.305Z,989.65
2022-10-01T08:01:31.762Z,989.65
2022-10-01T08:02:31.539Z,989.68
2022-10-01T08:03:31.523Z,989.66
2022-10-01T08:04:31.639Z,989.68
2022-10-01T08:05:31.701Z,989.65
2022-10-01T08:06:31.801Z,989.68
2022-10-01T08:07:31.887Z,989.68
2022-10-01T08:08:31.984Z,989.63
2022-10-01T08:09:32.072Z,989.64
2022-10-01T08:10:32.161Z,989.66
2022-10-01T08:11:32.543Z,989.67
2022-10-01T08:12:32.303Z,989.70
2022-10-01T08:13:32.368Z,989.70
2022-10-01T08:14:32.476Z,989.73
2022-10-01T08:15:32.538Z,989.75
2022-10-01T08:16:32.697Z,989.79
2022-10-01T08:17:32.720Z,989.74
2022-10-01T08:18:32.822Z,989.75
2022-10-01T08:19:32.904Z,989.77
2022-10-01T08:20:32.994Z,989.81
2022-10-01T08:21:33.300Z,989.79
2022-10-01T08:22:33.155Z,989.80
2022-10-01T08:23:33.220Z,989.81
2022-10-01T08:24:33.330Z,989.82
2022-10-01T08:25:33.392Z,989.78
2022-10-01T08:26:33.489Z,989.89
2022-10-01T08:27:33.554Z,989.93
2022-10-01T08:28:33.653Z,989.92
2022-10-01T08:29:33.733Z,989.89
2022-10-01T08:30:33.809Z,989.91
2022-10-01T08:31:34.204Z,989.85
2022-10-01T08:32:33.973Z,989.99
2022-10-01T08:33:34.043Z,989.89
2022-10-01T08:34:34.148Z,989.86
2022-10-01T08:35:34.208Z,989.89
2022-10-01T08:36:34.310Z,989.95
2022-10-01T08:37:34.384Z,989.93
2022-10-01T08:38:34.487Z,989.90
2022-10-01T08:39:34.573Z,989.91
2022-10-01T08:40:34.627Z,989.91
2022-10-01T08:41:35.268Z,989.94
2022-10-01T08:42:34.793Z,989.94
2022-10-01T08:43:34.863Z,989.95
2022-10-01T08:44:34.978Z,989.99
2022-10-01T08:45:35.129Z,989.97
2022-10-01T08:46:35.134Z,989.96
2022-10-01T08:47:35.205Z,989.96
2022-10-01T08:48:35.274Z,989.95
2022-10-01T08:49:35.366Z,989.97
2022-10-01T08:50:35.446Z,990.02
2022-10-01T08:51:35.848Z,990.03
2022-10-01T08:52:35.620Z,990.02
2022-10-01T08:53:35.694Z,990.04
2022-10-01T08:54:35.821Z,990.06
2022-10-01T08:55:35.849Z,990.04
2022-10-01T08:56:35.928Z,990.06
2022-10-01T08:57:35.999Z,990.09
2022-10-01T08:58:36.103Z,990.10
2022-10-01T08:59:36.186Z,990.15
2022-10-01T09:00:36.284Z,990.20
2022-10-01T09:01:36.789Z,990.17
2022-10-01T09:02:36.454Z,990.18
2022-10-01T09:03:36.532Z,990.17
2022-10-01T09:04:36.708Z,990.17
2022-10-01T09:05:36.717Z,990.21
2022-10-01T09:06:36.827Z,990.22
2022-10-01T09:07:36.907Z,990.26
2022-10-01T09:08:36.992Z,990.29
2022-10-01T09:09:37.083Z,990.32
2022-10-01T09:10:37.145Z,990.30
2022-10-01T09:11:37.660Z,990.32
2022-10-01T09:12:37.306Z,990.36
2022-10-01T09:13:37.389Z,990.40
2022-10-01T09:14:37.478Z,990.36
2022-10-01T09:15:37.513Z,990.39
2022-10-01T09:16:37.695Z,990.46
2022-10-01T09:17:37.689Z,990.44
2022-10-01T09:18:37.801Z,990.43
2022-10-01T09:19:40.726Z,990.47
2022-10-01T09:20:37.965Z,990.55
2022-10-01T09:21:38.038Z,990.51
2022-10-01T09:22:38.142Z,990.52
2022-10-01T09:23:38.216Z,990.57
2022-10-01T09:24:38.341Z,990.50
2022-10-01T09:25:38.372Z,990.58
2022-10-01T09:26:38.478Z,990.62
2022-10-01T09:27:38.550Z,990.66
2022-10-01T09:28:38.655Z,990.65
2022-10-01T09:29:38.751Z,990.73
2022-10-01T09:30:38.816Z,990.75
2022-10-01T09:31:39.149Z,990.70
2022-10-01T09:32:38.995Z,990.76
2022-10-01T09:33:39.067Z,990.75
2022-10-01T09:34:39.183Z,990.72
2022-10-01T09:35:39.223Z,990.75
2022-10-01T09:36:39.325Z,990.77
2022-10-01T09:37:39.405Z,990.73
2022-10-01T09:38:39.507Z,990.80
2022-10-01T09:39:39.597Z,990.76
2022-10-01T09:40:39.658Z,990.81
2022-10-01T09:41:39.726Z,990.78
2022-10-01T09:42:39.832Z,990.81
2022-10-01T09:43:39.902Z,990.82
2022-10-01T09:44:40.026Z,990.79
2022-10-01T09:45:40.128Z,990.77
2022-10-01T09:46:40.136Z,990.79
2022-10-01T09:47:40.198Z,990.82
2022-10-01T09:48:40.309Z,990.79
2022-10-01T09:49:41.967Z,990.82
2022-10-01T09:50:40.470Z,990.77
2022-10-01T09:51:41.117Z,990.82
2022-10-01T09:52:40.605Z,990.74
2022-10-01T09:53:40.661Z,990.85
2022-10-01T09:54:40.736Z,990.84
2022-10-01T09:55:40.851Z,990.82
2022-10-01T09:56:40.916Z,990.82
2022-10-01T09:57:41.006Z,990.74
2022-10-01T09:58:41.077Z,990.76
2022-10-01T09:59:41.176Z,990.72
2022-10-01T10:00:41.364Z,990.69
2022-10-01T10:01:41.373Z,990.62
2022-10-01T10:02:46.033Z,990.80
2022-10-01T10:03:41.587Z,990.71
2022-10-01T10:04:41.557Z,990.75
2022-10-01T10:05:41.652Z,990.72
2022-10-01T10:06:41.756Z,990.72
2022-10-01T10:07:41.830Z,990.77
2022-10-01T10:08:41.903Z,990.80
2022-10-01T10:09:42.005Z,990.70
2022-10-01T10:10:42.103Z,990.68
2022-10-01T10:11:42.149Z,990.80
2022-10-01T10:12:42.221Z,990.78
2022-10-01T10:13:42.306Z,990.72
2022-10-01T10:14:42.376Z,990.76
2022-10-01T10:15:42.564Z,990.74
2022-10-01T10:16:42.597Z,990.77
2022-10-01T10:17:42.632Z,990.77
2022-10-01T10:18:42.709Z,990.73
2022-10-01T10:19:42.796Z,990.64
2022-10-01T10:20:42.883Z,990.70
2022-10-01T10:21:42.948Z,990.68
2022-10-01T10:22:43.020Z,990.70
2022-10-01T10:23:43.105Z,990.78
2022-10-01T10:24:43.176Z,990.80
2022-10-01T10:25:43.504Z,990.79
2022-10-01T10:26:43.445Z,990.84
2022-10-01T10:27:43.449Z,990.86
2022-10-01T10:28:44.178Z,990.83
2022-10-01T10:29:43.605Z,990.86
2022-10-01T10:30:43.695Z,990.86
2022-10-01T10:31:43.840Z,990.88
2022-10-01T10:32:43.831Z,990.84
2022-10-01T10:33:43.915Z,990.84
2022-10-01T10:34:43.990Z,990.90
2022-10-01T10:35:44.121Z,990.91
2022-10-01T10:36:44.126Z,990.97
2022-10-01T10:37:44.211Z,990.99
2022-10-01T10:38:44.287Z,990.99
2022-10-01T10:39:44.361Z,991.01
2022-10-01T10:40:44.439Z,991.08
2022-10-01T10:41:44.506Z,991.11
2022-10-01T10:42:44.588Z,991.14
2022-10-01T10:43:44.680Z,991.11
2022-10-01T10:44:44.743Z,991.10
2022-10-01T10:45:44.873Z,991.09
2022-10-01T10:46:46.263Z,991.17
2022-10-01T10:47:45.016Z,991.15
2022-10-01T10:48:45.084Z,991.23
2022-10-01T10:49:45.176Z,991.08
2022-10-01T10:50:45.265Z,991.22
2022-10-01T10:51:45.346Z,991.18
2022-10-01T10:52:45.885Z,991.15
2022-10-01T10:53:45.488Z,991.19
2022-10-01T10:54:45.562Z,991.19
2022-10-01T10:55:45.646Z,991.17
2022-10-01T10:56:45.685Z,991.23
2022-10-01T10:57:45.786Z,991.22
2022-10-01T10:58:45.848Z,991.25
2022-10-01T10:59:45.944Z,991.23
2022-10-01T11:00:46.077Z,991.28
2022-10-01T11:01:46.159Z,991.28
2022-10-01T11:02:46.216Z,991.36
2022-10-01T11:03:46.262Z,991.30
2022-10-01T11:04:46.340Z,991.28
2022-10-01T11:05:46.458Z,991.36
2022-10-01T11:06:46.497Z,991.39
2022-10-01T11:07:46.609Z,991.46
2022-10-01T11:08:46.680Z,991.46
2022-10-01T11:09:46.767Z,991.45
2022-10-01T11:10:46.872Z,991.49
2022-10-01T11:11:46.930Z,991.50
2022-10-01T11:12:47.009Z,991.46
2022-10-01T11:13:47.120Z,991.45
2022-10-01T11:14:47.195Z,991.46
2022-10-01T11:15:47.381Z,991.43
2022-10-01T11:16:47.325Z,991.45
2022-10-01T11:17:47.410Z,991.48
2022-10-01T11:18:47.486Z,991.38
2022-10-01T11:19:47.585Z,991.42
2022-10-01T11:20:47.705Z,991.39
2022-10-01T11:21:47.734Z,991.45
2022-10-01T11:22:47.811Z,991.48
2022-10-01T11:23:47.928Z,991.47
2022-10-01T11:24:48.009Z,991.48
2022-10-01T11:25:48.098Z,991.52
2022-10-01T11:26:51.622Z,991.56
2022-10-01T11:27:48.246Z,991.54
2022-10-01T11:28:48.283Z,991.57
2022-10-01T11:29:48.372Z,991.49
2022-10-01T11:30:48.784Z,991.48
2022-10-01T11:31:48.580Z,991.49
2022-10-01T11:32:48.605Z,991.46
2022-10-01T11:33:48.677Z,991.45
2022-10-01T11:34:48.754Z,991.43
2022-10-01T11:35:48.902Z,991.40
2022-10-01T11:36:52.069Z,991.44
2022-10-01T11:37:49.026Z,991.46
2022-10-01T11:38:49.083Z,991.45
2022-10-01T11:39:49.173Z,991.45
2022-10-01T11:40:49.359Z,991.46
2022-10-01T11:41:49.346Z,991.40
2022-10-01T11:42:49.417Z,991.40
2022-10-01T11:43:49.529Z,991.40
2022-10-01T11:44:49.603Z,991.43
2022-10-01T11:45:49.722Z,991.54
2022-10-01T11:46:49.783Z,991.44
2022-10-01T11:47:49.843Z,991.43
2022-10-01T11:48:49.914Z,991.45
2022-10-01T11:49:50.011Z,991.43
2022-10-01T11:50:50.102Z,991.48
2022-10-01T11:51:50.182Z,991.46
2022-10-01T11:52:50.251Z,991.54
2022-10-01T11:53:50.353Z,991.51
2022-10-01T11:54:54.231Z,991.55
2022-10-01T11:55:50.681Z,991.50
2022-10-01T11:56:50.554Z,991.47
2022-10-01T11:57:50.637Z,991.57
2022-10-01T11:58:50.714Z,991.59
2022-10-01T11:59:50.808Z,991.58
2022-10-01T12:00:50.928Z,991.62
2022-10-01T12:01:51.059Z,991.59
2022-10-01T12:02:51.057Z,991.66
2022-10-01T12:03:51.133Z,991.57
2022-10-01T12:04:51.209Z,991.61
2022-10-01T12:05:51.393Z,991.67
2022-10-01T12:06:51.392Z,991.63
2022-10-01T12:07:51.496Z,991.59
2022-10-01T12:08:51.569Z,991.69
2022-10-01T12:09:51.648Z,991.63
2022-10-01T12:10:51.725Z,991.59
2022-10-01T12:11:51.791Z,991.54
2022-10-01T12:12:51.865Z,991.58
2022-10-01T12:13:51.936Z,991.57
2022-10-01T12:14:52.011Z,991.56
2022-10-01T12:15:52.292Z,991.63
2022-10-01T12:16:52.162Z,991.66
2022-10-01T12:17:52.248Z,991.73
2022-10-01T12:18:52.327Z,991.67
2022-10-01T12:19:52.395Z,991.72
2022-10-01T12:20:52.526Z,991.75
2022-10-01T12:21:52.574Z,991.62
2022-10-01T12:22:52.649Z,991.72
2022-10-01T12:23:52.748Z,991.72
2022-10-01T12:24:52.815Z,991.71
2022-10-01T12:25:52.956Z,991.79
2022-10-01T12:26:52.993Z,991.66
2022-10-01T12:27:53.092Z,991.62
2022-10-01T12:28:57.930Z,991.68
2022-10-01T12:29:53.242Z,991.69